Historyczne dane pomiarowe

Dodano dane terminowe – wersja testowa.

Dane z okresu 1951-2019

Wersja bazy: 1.34 [2019-03-16, lista zmian], aktualizacja planowana na 2019-04-15

Dane meteo z obszaru Polski uzyskane na podstawie danych udostępnionych przez Instytut Meteorologii i Gospodarki Wodnej – Państwowy Instytut Badawczy.

 

Wybierz Datę:    

       

TemperaturaWilgotnośćWiatrCiśnienieOpadyŚniegCzas trwania zjawisk
 Stacja t tx tn tng RH VA  wxwx mslp ppp RRR   cm mm wxwxwxwxwxwxwx
1995-09-11 14.2 20.9 7.6- 85.5- 5.3 3.3---- 7.0------------
1995-09-12 15.3 19.9 13.0- 89.3- 3.7 2.3---- 0.0------------
1995-09-13 15.7 21.7 7.7- 81.8- 3.0 4.0---- 0.0------------
1995-09-14 17.3 21.2 15.6- 86.5- 6.3 3.3---- 0.0------------
1995-09-15 14.5 16.6 13.6- 90.5- 7.0 1.7---- 0.4------------
1995-09-16 14.3 17.0 12.6- 90.5- 6.0 2.3---- 0.0------------
1995-09-17 12.3 14.9 10.7- 94.8- 8.0 4.3---- 0.0------------
1995-09-18 10.3 11.9 9.3- 93.0- 8.0 4.7---- 0.0------------
1995-09-19 10.7 12.3 9.6- 89.5- 8.0 4.3---- 0.0------------
1995-09-20 10.5 13.4 7.9- 94.3- 7.3 3.0---- 4.7------------
1995-09-21 11.8 15.0 10.6- 82.0- 5.7 4.3---- 0.0------------
1995-09-22 11.6 17.6 5.4- 81.5- 3.7 1.7---- 0.0------------
1995-09-23 13.2 16.0 11.0- 90.3- 4.3 2.7---- 0.0------------
1995-09-24 11.6 17.7 3.4- 87.0- 6.0 3.7---- 0.0------------
1995-09-25 14.4 19.5 9.7- 80.5- 2.7 3.7---- 0.0------------
1995-09-26 12.0 15.1 9.0- 90.3- 6.3 5.7---- 14.1------------
1995-09-27 10.7 12.9 9.6- 96.0- 8.0 2.3---- 1.1------------
1995-09-28 8.2 10.8 6.8- 73.5- 3.7 9.0---- 0.2------------
1995-09-29 5.9 8.4 4.1- 84.8- 4.7 6.0---- 0.5------------
1995-09-30 5.7 10.8 3.7- 85.3- 3.7 4.7---- 1.6------------
1995-10-01 6.3 9.8 4.2- 87.0- 6.7 2.0---- 1.0------------
1995-10-02 9.5 15.5 5.0- 86.8- 5.7 3.7---- 0.0------------
1995-10-03 10.0 18.5 1.8- 84.0- 2.0 2.0---- 0.0------------
1995-10-04 14.5 19.4 10.1- 90.5- 4.3 2.0---- 0.0------------
1995-10-05 15.5 23.1 8.8- 83.5- 0.7 2.3---- 0.0------------
1995-10-06 14.6 17.4 13.1- 90.0- 5.7 3.3---- 0.0------------
1995-10-07 13.7 16.9 8.1- 93.0- 8.0 2.0---- 0.0------------
1995-10-08 14.9 16.4 12.4- 93.8- 7.3 2.3---- 1.7------------
1995-10-09 16.1 23.1 12.3- 86.8- 0.0 1.3---- 0.0------------
1995-10-10 16.2 25.1 10.7- 85.0- 0.0 0.7---- 0.0------------
129.6 ms

 

Źródłem pochodzenia danych jest Instytut Meteorologii i Gospodarki Wodnej – Państwowy Instytut Badawczy. Dane Instytutu Meteorologii i Gospodarki Wodnej – Państwowego Instytutu Badawczego zostały przetworzone.

Dane źródłowe można odnaleźć na stronie https://dane.imgw.pl